createdAt,value
2022-10-12T00:01:36.314Z,5.37
2022-10-12T00:04:23.036Z,5.35
2022-10-12T00:07:09.752Z,5.35
2022-10-12T00:09:58.287Z,5.31
2022-10-12T00:12:45.496Z,5.21
2022-10-12T00:15:32.059Z,5.15
2022-10-12T00:18:18.874Z,5.12
2022-10-12T00:21:07.445Z,5.05
2022-10-12T00:23:55.033Z,4.99
2022-10-12T00:26:43.136Z,4.95
2022-10-12T00:29:29.830Z,4.90
2022-10-12T00:32:16.718Z,4.84
2022-10-12T00:35:03.923Z,4.85
2022-10-12T00:37:54.449Z,4.80
2022-10-12T00:40:41.224Z,4.74
2022-10-12T00:43:31.826Z,4.73
2022-10-12T00:46:22.247Z,4.68
2022-10-12T00:49:13.771Z,4.70
2022-10-12T00:52:04.047Z,4.64
2022-10-12T00:54:53.803Z,4.58
2022-10-12T00:57:45.902Z,4.52
2022-10-12T01:00:35.761Z,4.49
2022-10-12T01:03:24.129Z,4.42
2022-10-12T01:06:10.832Z,4.30
2022-10-12T01:08:58.243Z,4.22
2022-10-12T01:11:44.740Z,4.25
2022-10-12T01:14:31.452Z,4.21
2022-10-12T01:17:33.757Z,4.19
2022-10-12T01:20:49.579Z,4.21
2022-10-12T01:24:09.570Z,4.18
2022-10-12T01:27:07.010Z,4.12
2022-10-12T01:30:09.680Z,4.08
2022-10-12T01:33:07.478Z,4.03
2022-10-12T01:36:00.607Z,4.00
2022-10-12T01:38:52.783Z,3.95
2022-10-12T01:41:45.449Z,3.90
2022-10-12T01:44:32.760Z,3.56
2022-10-12T01:47:20.917Z,3.76
2022-10-12T01:50:11.823Z,3.70
2022-10-12T01:53:06.447Z,3.70
2022-10-12T01:56:00.261Z,3.66
2022-10-12T01:58:57.740Z,3.60
2022-10-12T02:01:47.830Z,3.57
2022-10-12T02:04:40.790Z,3.55
2022-10-12T02:07:37.944Z,3.55
2022-10-12T02:10:30.821Z,3.50
2022-10-12T02:13:21.297Z,3.50
2022-10-12T02:16:12.834Z,3.49
2022-10-12T02:19:01.404Z,3.42
2022-10-12T02:21:52.667Z,3.39
2022-10-12T02:24:42.608Z,3.31
2022-10-12T02:27:29.341Z,3.28
2022-10-12T02:30:19.242Z,3.28
2022-10-12T02:33:12.107Z,3.26
2022-10-12T02:36:03.942Z,3.25
2022-10-12T02:39:01.155Z,3.19
2022-10-12T02:41:51.216Z,3.13
2022-10-12T02:44:41.166Z,3.08
2022-10-12T02:47:30.048Z,3.06
2022-10-12T02:50:18.361Z,3.07
2022-10-12T02:53:06.337Z,3.08
2022-10-12T02:56:00.575Z,3.07
2022-10-12T02:58:49.060Z,3.08
2022-10-12T03:01:35.846Z,3.05
2022-10-12T03:04:22.521Z,3.07
2022-10-12T03:07:09.358Z,3.05
2022-10-12T03:09:55.856Z,3.03
2022-10-12T03:12:49.822Z,3.00
2022-10-12T03:15:36.751Z,3.04
2022-10-12T03:18:23.612Z,3.06
2022-10-12T03:21:10.961Z,2.74
2022-10-12T03:23:57.681Z,3.11
2022-10-12T03:26:44.443Z,3.10
2022-10-12T03:29:32.657Z,3.06
2022-10-12T03:32:19.664Z,3.02
2022-10-12T03:35:06.995Z,3.00
2022-10-12T03:37:53.541Z,2.98
2022-10-12T03:40:40.360Z,2.93
2022-10-12T03:43:26.708Z,2.92
2022-10-12T03:46:15.050Z,2.90
2022-10-12T03:49:01.772Z,2.87
2022-10-12T03:51:48.687Z,2.76
2022-10-12T03:54:35.569Z,2.83
2022-10-12T03:57:22.381Z,2.80
2022-10-12T04:00:10.548Z,2.80
2022-10-12T04:03:02.270Z,2.79
2022-10-12T04:05:53.991Z,2.78
2022-10-12T04:08:40.607Z,2.76
2022-10-12T04:11:27.474Z,2.73
2022-10-12T04:14:14.196Z,2.70
2022-10-12T04:17:02.834Z,2.69
2022-10-12T04:19:51.437Z,2.64
2022-10-12T04:22:38.476Z,2.64
2022-10-12T04:25:29.978Z,2.60
2022-10-12T04:28:16.981Z,2.54
2022-10-12T04:31:03.743Z,2.56
2022-10-12T04:33:50.506Z,2.59
2022-10-12T04:36:39.505Z,2.56
2022-10-12T04:39:26.167Z,2.51
2022-10-12T04:42:12.910Z,2.50
2022-10-12T04:44:59.744Z,2.46
2022-10-12T04:47:46.618Z,2.40
2022-10-12T04:50:33.433Z,2.38
2022-10-12T04:53:21.527Z,2.32
2022-10-12T04:56:09.114Z,2.29
2022-10-12T04:58:55.842Z,2.30
2022-10-12T05:01:42.987Z,2.25
2022-10-12T05:04:29.559Z,2.20
2022-10-12T05:07:16.276Z,2.20
2022-10-12T05:10:04.692Z,2.15
2022-10-12T05:12:51.209Z,2.14
2022-10-12T05:15:37.876Z,2.14
2022-10-12T05:18:24.708Z,2.14
2022-10-12T05:21:11.420Z,2.15
2022-10-12T05:23:58.172Z,2.16
2022-10-12T05:26:46.320Z,2.18
2022-10-12T05:29:33.068Z,2.22
2022-10-12T05:32:19.862Z,2.18
2022-10-12T05:35:08.332Z,2.16
2022-10-12T05:37:54.971Z,2.14
2022-10-12T05:40:41.813Z,2.14
2022-10-12T05:43:30.145Z,2.20
2022-10-12T05:46:16.998Z,2.25
2022-10-12T05:49:03.858Z,2.31
2022-10-12T05:51:50.356Z,2.35
2022-10-12T05:54:37.380Z,2.40
2022-10-12T05:57:24.099Z,2.42
2022-10-12T06:00:13.252Z,2.44
2022-10-12T06:02:59.635Z,2.44
2022-10-12T06:05:46.650Z,2.52
2022-10-12T06:08:34.019Z,2.62
2022-10-12T06:11:21.311Z,2.69
2022-10-12T06:14:07.888Z,2.76
2022-10-12T06:16:55.916Z,2.79
2022-10-12T06:19:42.466Z,2.87
2022-10-12T06:22:29.437Z,3.00
2022-10-12T06:25:16.319Z,3.16
2022-10-12T06:28:03.050Z,3.21
2022-10-12T06:30:54.818Z,3.33
2022-10-12T06:33:43.163Z,3.42
2022-10-12T06:36:30.034Z,3.56
2022-10-12T06:39:16.928Z,3.68
2022-10-12T06:42:03.427Z,3.84
2022-10-12T06:44:50.620Z,4.08
2022-10-12T06:47:37.122Z,4.13
2022-10-12T06:50:26.510Z,4.22
2022-10-12T06:53:13.055Z,4.36
2022-10-12T06:55:59.903Z,4.41
2022-10-12T06:58:46.752Z,4.51
2022-10-12T07:01:33.477Z,4.60
2022-10-12T07:04:20.610Z,4.72
2022-10-12T07:07:08.452Z,4.74
2022-10-12T07:09:55.066Z,4.82
2022-10-12T07:12:41.995Z,4.81
2022-10-12T07:15:28.559Z,4.82
2022-10-12T07:18:15.315Z,4.91
2022-10-12T07:21:02.974Z,5.04
2022-10-12T07:23:51.273Z,5.03
2022-10-12T07:26:37.975Z,5.02
2022-10-12T07:29:24.821Z,5.08
2022-10-12T07:32:11.526Z,5.15
2022-10-12T07:34:58.290Z,5.25
2022-10-12T07:37:45.170Z,5.48
2022-10-12T07:40:34.264Z,5.63
2022-10-12T07:43:21.352Z,5.93
2022-10-12T07:46:08.162Z,6.08
2022-10-12T07:48:55.108Z,6.30
2022-10-12T07:51:42.520Z,6.49
2022-10-12T07:54:30.782Z,6.66
2022-10-12T07:57:18.973Z,6.81
2022-10-12T08:00:06.879Z,6.99
2022-10-12T08:02:58.431Z,7.17
2022-10-12T08:05:45.000Z,7.45
2022-10-12T08:08:31.696Z,7.51
2022-10-12T08:11:19.534Z,7.56
2022-10-12T08:14:07.838Z,7.64
2022-10-12T08:16:54.321Z,7.83
2022-10-12T08:19:41.324Z,8.06
2022-10-12T08:22:28.285Z,8.20
2022-10-12T08:25:15.057Z,8.41
2022-10-12T08:28:01.979Z,8.61
2022-10-12T08:30:50.650Z,8.72
2022-10-12T08:33:37.373Z,8.87
2022-10-12T08:36:24.184Z,8.90
2022-10-12T08:39:10.946Z,9.00
2022-10-12T08:42:11.058Z,9.10
2022-10-12T08:45:30.612Z,9.33
2022-10-12T08:48:22.926Z,9.49
2022-10-12T08:51:16.700Z,9.58
2022-10-12T08:54:07.605Z,10.03
2022-10-12T08:56:55.374Z,10.05
2022-10-12T08:59:42.250Z,10.20
2022-10-12T09:02:47.222Z,10.27
2022-10-12T09:05:41.425Z,10.50
2022-10-12T09:08:38.157Z,10.77
2022-10-12T09:11:40.260Z,10.89
2022-10-12T09:14:29.581Z,11.06
2022-10-12T09:17:28.052Z,11.15
2022-10-12T09:20:20.045Z,11.23
2022-10-12T09:23:23.855Z,11.42
2022-10-12T09:26:16.874Z,11.53
2022-10-12T09:29:05.784Z,11.61
2022-10-12T09:32:09.987Z,11.85
2022-10-12T09:34:57.412Z,11.93
2022-10-12T09:37:49.552Z,12.10
2022-10-12T09:40:37.725Z,12.19
2022-10-12T09:43:24.729Z,12.33
2022-10-12T09:46:16.103Z,12.32
2022-10-12T09:49:02.852Z,12.50
2022-10-12T09:51:59.747Z,12.75
2022-10-12T09:54:49.191Z,12.89
2022-10-12T09:57:38.991Z,12.88
2022-10-12T10:00:29.005Z,12.86
2022-10-12T10:03:30.636Z,12.92
2022-10-12T10:06:25.197Z,13.14
2022-10-12T10:09:32.486Z,12.96
2022-10-12T10:12:25.191Z,13.11
2022-10-12T10:15:21.641Z,13.18
2022-10-12T10:18:21.438Z,13.33
2022-10-12T10:21:10.781Z,13.47
2022-10-12T10:24:00.193Z,13.49
2022-10-12T10:26:55.605Z,13.55
2022-10-12T10:29:43.885Z,13.57
2022-10-12T10:32:31.840Z,13.61
2022-10-12T10:35:22.012Z,13.63
2022-10-12T10:38:16.752Z,13.61
2022-10-12T10:41:07.642Z,13.76
2022-10-12T10:43:54.857Z,13.78
2022-10-12T10:46:41.204Z,13.87
2022-10-12T10:49:37.915Z,13.94
2022-10-12T10:52:26.649Z,13.90
2022-10-12T10:55:20.003Z,13.96
2022-10-12T10:58:12.216Z,14.10
2022-10-12T11:01:05.302Z,14.04
2022-10-12T11:03:57.689Z,14.10
2022-10-12T11:06:52.438Z,14.14
2022-10-12T11:09:44.055Z,14.11
2022-10-12T11:12:34.174Z,14.21
2022-10-12T11:15:26.916Z,14.27
2022-10-12T11:18:19.317Z,14.28
2022-10-12T11:21:12.820Z,14.29
2022-10-12T11:24:06.541Z,14.15
2022-10-12T11:26:58.054Z,14.51
2022-10-12T11:29:46.634Z,14.42
2022-10-12T11:32:41.969Z,14.55
2022-10-12T11:35:31.398Z,14.41
2022-10-12T11:38:23.569Z,14.48
2022-10-12T11:44:30.609Z,14.53
2022-10-12T11:47:27.620Z,14.54
2022-10-12T11:50:28.708Z,14.36
2022-10-12T11:53:20.552Z,14.38
2022-10-12T11:56:15.843Z,14.42
2022-10-12T11:59:07.030Z,14.46
2022-10-12T12:02:18.951Z,14.43
2022-10-12T12:05:16.096Z,14.44
2022-10-12T12:08:03.457Z,14.56
2022-10-12T12:11:07.223Z,14.73
2022-10-12T12:14:34.578Z,14.89
2022-10-12T12:17:31.694Z,14.89
2022-10-12T12:20:56.652Z,14.92
2022-10-12T12:23:53.416Z,14.97
2022-10-12T12:26:48.309Z,14.94
2022-10-12T12:29:35.154Z,15.12
2022-10-12T12:32:22.618Z,15.12
2022-10-12T12:35:21.541Z,15.20
2022-10-12T12:38:24.065Z,15.26
2022-10-12T12:41:13.441Z,15.25
2022-10-12T12:44:01.581Z,15.07
2022-10-12T12:47:44.640Z,14.80
2022-10-12T12:50:35.791Z,14.71
2022-10-12T12:53:23.519Z,14.79
2022-10-12T12:56:21.422Z,14.80
2022-10-12T12:59:32.025Z,14.95
2022-10-12T13:02:43.845Z,15.15
2022-10-12T13:05:59.712Z,15.17
2022-10-12T13:09:01.448Z,15.25
2022-10-12T13:11:59.689Z,15.15
2022-10-12T13:15:02.067Z,15.27
2022-10-12T13:18:28.464Z,15.03
2022-10-12T13:21:23.231Z,14.95
2022-10-12T13:24:17.469Z,14.73
2022-10-12T13:27:17.117Z,14.37
2022-10-12T13:30:07.517Z,14.31
2022-10-12T13:32:59.747Z,14.39
2022-10-12T13:35:50.177Z,14.30
2022-10-12T13:38:39.176Z,14.51
2022-10-12T13:41:30.458Z,14.73
2022-10-12T13:44:23.295Z,14.58
2022-10-12T13:47:23.636Z,14.41
2022-10-12T13:50:18.285Z,14.29
2022-10-12T13:53:14.779Z,14.09
2022-10-12T13:56:05.667Z,14.08
2022-10-12T13:58:55.358Z,14.23
2022-10-12T14:01:50.283Z,14.36
2022-10-12T14:04:37.023Z,14.24
2022-10-12T14:07:26.368Z,14.09
2022-10-12T14:10:19.696Z,14.08
2022-10-12T14:13:09.614Z,14.21
2022-10-12T14:15:57.093Z,14.24
2022-10-12T14:18:45.311Z,14.23
2022-10-12T14:21:36.879Z,14.24
2022-10-12T14:24:26.254Z,14.15
2022-10-12T14:27:25.478Z,14.25
2022-10-12T14:30:20.968Z,14.06
2022-10-12T14:33:12.746Z,13.99
2022-10-12T14:36:14.609Z,13.99
2022-10-12T14:39:14.953Z,13.92
2022-10-12T14:42:05.661Z,14.01
2022-10-12T14:44:54.783Z,13.98
2022-10-12T14:47:43.143Z,13.92
2022-10-12T14:50:32.820Z,13.75
2022-10-12T14:53:19.312Z,13.58
2022-10-12T14:56:06.501Z,13.35
2022-10-12T14:58:53.246Z,13.17
2022-10-12T15:01:41.780Z,13.44
2022-10-12T15:04:30.530Z,13.31
2022-10-12T15:07:19.002Z,13.08
2022-10-12T15:10:06.191Z,12.93
2022-10-12T15:12:53.508Z,12.77
2022-10-12T15:15:42.821Z,12.75
2022-10-12T15:18:29.502Z,12.60
2022-10-12T15:21:18.124Z,12.46
2022-10-12T15:24:14.973Z,12.32
2022-10-12T15:27:01.877Z,12.21
2022-10-12T15:29:49.034Z,12.17
2022-10-12T15:32:35.469Z,12.13
2022-10-12T15:35:24.426Z,11.99
2022-10-12T15:38:14.302Z,11.93
2022-10-12T15:41:01.165Z,11.76
2022-10-12T15:43:48.114Z,11.61
2022-10-12T15:46:34.968Z,11.52
2022-10-12T15:49:24.369Z,11.44
2022-10-12T15:52:12.509Z,11.33
2022-10-12T15:55:00.367Z,11.25
2022-10-12T15:57:47.531Z,11.13
2022-10-12T16:00:34.359Z,11.07
2022-10-12T16:03:26.025Z,10.97
2022-10-12T16:06:13.149Z,10.87
2022-10-12T16:08:59.816Z,10.70
2022-10-12T16:11:49.059Z,10.60
2022-10-12T16:14:35.880Z,10.42
2022-10-12T16:17:22.645Z,10.28
2022-10-12T16:20:10.858Z,10.15
2022-10-12T16:22:57.698Z,10.08
2022-10-12T16:25:44.423Z,9.93
2022-10-12T16:28:32.530Z,9.85
2022-10-12T16:31:19.436Z,9.78
2022-10-12T16:34:06.183Z,9.65
2022-10-12T16:36:54.098Z,9.51
2022-10-12T16:39:40.609Z,9.37
2022-10-12T16:42:27.598Z,9.29
2022-10-12T16:45:15.662Z,9.19
2022-10-12T16:48:02.775Z,9.14
2022-10-12T16:50:49.661Z,9.04
2022-10-12T16:53:36.456Z,8.96
2022-10-12T16:56:23.079Z,8.87
2022-10-12T16:59:10.803Z,8.74
2022-10-12T17:01:59.885Z,8.70
2022-10-12T17:04:47.805Z,8.67
2022-10-12T17:07:41.180Z,8.61
2022-10-12T17:10:29.210Z,8.53
2022-10-12T17:13:16.914Z,8.36
2022-10-12T17:16:25.972Z,8.25
2022-10-12T17:19:15.501Z,8.18
2022-10-12T17:22:04.997Z,8.16
2022-10-12T17:24:52.651Z,8.17
2022-10-12T17:27:40.256Z,8.12
2022-10-12T17:30:27.367Z,8.11
2022-10-12T17:33:15.136Z,8.05
2022-10-12T17:36:07.582Z,7.93
2022-10-12T17:38:56.778Z,7.73
2022-10-12T17:41:44.490Z,7.85
2022-10-12T17:44:32.129Z,7.87
2022-10-12T17:47:19.938Z,7.83
2022-10-12T17:50:08.106Z,7.75
2022-10-12T17:52:56.876Z,7.65
2022-10-12T17:55:48.696Z,7.62
2022-10-12T17:58:36.568Z,7.59
2022-10-12T18:01:23.263Z,7.52
2022-10-12T18:04:12.375Z,7.40
2022-10-12T18:06:59.114Z,7.29
2022-10-12T18:09:47.270Z,7.12
2022-10-12T18:12:34.264Z,7.06
2022-10-12T18:15:23.178Z,7.05
2022-10-12T18:18:15.163Z,6.99
2022-10-12T18:21:20.950Z,6.98
2022-10-12T18:24:16.522Z,6.94
2022-10-12T18:27:09.410Z,6.87
2022-10-12T18:29:58.351Z,6.86
2022-10-12T18:32:50.879Z,6.85
2022-10-12T18:35:38.437Z,6.94
2022-10-12T18:38:25.305Z,6.82
2022-10-12T18:41:14.979Z,6.82
2022-10-12T18:44:03.791Z,6.79
2022-10-12T18:46:50.565Z,6.86
2022-10-12T18:49:39.315Z,6.81
2022-10-12T18:52:29.994Z,6.66
2022-10-12T18:55:18.285Z,6.53
2022-10-12T18:58:06.662Z,6.54
2022-10-12T19:00:55.283Z,6.51
2022-10-12T19:03:44.690Z,6.46
2022-10-12T19:06:34.056Z,6.43
2022-10-12T19:09:20.550Z,6.32
2022-10-12T19:12:09.452Z,6.26
2022-10-12T19:14:56.045Z,6.20
2022-10-12T19:17:44.170Z,6.11
2022-10-12T19:20:32.497Z,6.03
2022-10-12T19:23:19.180Z,5.99
2022-10-12T19:26:07.548Z,5.76
2022-10-12T19:28:57.449Z,5.91
2022-10-12T19:31:46.584Z,5.86
2022-10-12T19:34:34.633Z,5.79
2022-10-12T19:37:21.444Z,5.76
2022-10-12T19:40:12.513Z,5.71
2022-10-12T19:42:59.017Z,5.72
2022-10-12T19:45:45.813Z,5.71
2022-10-12T19:48:32.860Z,5.72
2022-10-12T19:51:22.452Z,5.70
2022-10-12T19:54:12.011Z,5.66
2022-10-12T19:56:58.852Z,5.61
2022-10-12T19:59:45.514Z,5.65
2022-10-12T20:02:32.992Z,5.65
2022-10-12T20:05:19.680Z,5.67
2022-10-12T20:08:07.699Z,5.54
2022-10-12T20:10:54.296Z,5.52
2022-10-12T20:13:41.442Z,5.46
2022-10-12T20:16:32.480Z,5.43
2022-10-12T20:19:21.506Z,5.37
2022-10-12T20:22:08.917Z,5.32
2022-10-12T20:24:57.581Z,5.26
2022-10-12T20:27:44.220Z,5.26
2022-10-12T20:30:31.394Z,5.24
2022-10-12T20:33:18.285Z,5.16
2022-10-12T20:36:08.667Z,5.13
2022-10-12T20:38:55.711Z,5.15
2022-10-12T20:41:43.978Z,5.12
2022-10-12T20:44:31.003Z,5.04
2022-10-12T20:47:18.318Z,5.01
2022-10-12T20:50:06.318Z,4.98
2022-10-12T20:52:53.471Z,4.96
2022-10-12T20:55:41.674Z,4.96
2022-10-12T20:58:29.891Z,4.93
2022-10-12T21:01:18.703Z,4.87
2022-10-12T21:04:06.199Z,4.88
2022-10-12T21:06:53.890Z,4.86
2022-10-12T21:09:41.526Z,4.84
2022-10-12T21:12:28.813Z,4.79
2022-10-12T21:15:17.407Z,4.85
2022-10-12T21:18:04.426Z,4.93
2022-10-12T21:20:56.507Z,4.84
2022-10-12T21:23:45.554Z,4.84
2022-10-12T21:26:33.148Z,4.83
2022-10-12T21:29:20.878Z,4.76
2022-10-12T21:32:09.138Z,4.87
2022-10-12T21:34:56.224Z,4.83
2022-10-12T21:37:43.471Z,4.84
2022-10-12T21:40:30.317Z,4.70
2022-10-12T21:43:20.063Z,4.63
2022-10-12T21:46:08.972Z,4.53
2022-10-12T21:48:58.733Z,4.48
2022-10-12T21:51:45.162Z,4.49
2022-10-12T21:54:32.030Z,4.48
2022-10-12T21:57:18.814Z,4.46
2022-10-12T22:00:07.345Z,4.47
2022-10-12T22:02:59.460Z,4.19
2022-10-12T22:05:50.473Z,4.41
2022-10-12T22:08:36.859Z,4.40
2022-10-12T22:11:27.278Z,4.49
2022-10-12T22:14:16.300Z,4.41
2022-10-12T22:17:03.124Z,4.51
2022-10-12T22:19:52.301Z,4.55
2022-10-12T22:22:40.364Z,4.51
2022-10-12T22:25:27.124Z,4.44
2022-10-12T22:28:13.883Z,4.37
2022-10-12T22:31:01.651Z,4.28
2022-10-12T22:33:48.497Z,4.24
2022-10-12T22:36:35.548Z,4.19
2022-10-12T22:39:23.345Z,4.17
2022-10-12T22:42:10.148Z,4.13
2022-10-12T22:44:57.030Z,4.09
2022-10-12T22:47:43.743Z,4.08
2022-10-12T22:50:31.166Z,4.04
2022-10-12T22:53:20.340Z,4.03
2022-10-12T22:56:14.323Z,4.01
2022-10-12T22:59:02.848Z,3.98
2022-10-12T23:01:49.642Z,3.96
2022-10-12T23:04:36.332Z,3.97
2022-10-12T23:07:22.694Z,3.95
2022-10-12T23:10:10.134Z,3.94
2022-10-12T23:12:58.497Z,3.97
2022-10-12T23:15:45.472Z,3.98
2022-10-12T23:18:33.507Z,3.95
2022-10-12T23:21:20.359Z,3.93
2022-10-12T23:24:07.584Z,3.91
2022-10-12T23:26:54.465Z,3.85
2022-10-12T23:29:43.518Z,3.82
2022-10-12T23:32:31.763Z,3.75
2022-10-12T23:35:18.297Z,3.68
2022-10-12T23:38:05.157Z,3.69
2022-10-12T23:40:52.067Z,3.65
2022-10-12T23:43:38.789Z,3.63
2022-10-12T23:46:27.813Z,3.67
2022-10-12T23:49:17.647Z,3.67
2022-10-12T23:52:04.637Z,3.65
2022-10-12T23:54:51.150Z,3.61
2022-10-12T23:57:47.630Z,3.53
